F/V Marial — FHVA — position and weather

sailwx.info

Track history (hours):
 
Tides and Currents Weather Stations Pressure Air Temp Water Temp Dewpoint Dewpoint Depression Visibility Wind Speed Wind Dir Waves Ship Positions

F/V Marial

Last reported at 2017-Nov-18 03:17 UTC. Time now 2017-Nov-19 21:56 UTC.
Position N 46°44' W 002°21'.

Length 20 m; draft 3.4 m.

Type: Fishing. MMSI: 227563000.

Date/timePositionNaut miles runAvg speedWind from/ knotsBaromVisibWave heightAir tempDewpointWater temp
2017-Nov-18 03:17N 46°44' W 002°21'0 0.0
2017-Nov-18 03:00N 46°44' W 002°21'33 2.1
2017-Nov-17 11:32N 46°12' W 002°31'0 0.0
2017-Nov-17 11:24N 46°12' W 002°31'0 0.0
2017-Nov-17 10:56N 46°12' W 002°31'0 0.1
2017-Nov-17 10:30N 46°12' W 002°31'0 0.1
2017-Nov-17 09:57N 46°12' W 002°31'0 0.1
2017-Nov-17 09:30N 46°12' W 002°31'0 0.1
2017-Nov-17 08:59N 46°12' W 002°31'0 0.1
2017-Nov-17 08:30N 46°11' W 002°31'0 0.0
2017-Nov-17 07:55N 46°11' W 002°31'0 0.0
2017-Nov-17 07:26N 46°11' W 002°31'0 0.1
2017-Nov-17 06:52N 46°11' W 002°31'0 0.1
2017-Nov-17 06:21N 46°11' W 002°31'0 0.0
2017-Nov-17 06:00N 46°11' W 002°31'0 0.0
2017-Nov-17 04:47N 46°11' W 002°31'0 0.0
2017-Nov-17 04:17N 46°11' W 002°31'0 0.0
2017-Nov-17 04:00N 46°11' W 002°31'0 0.0
2017-Nov-17 03:29N 46°11' W 002°31'0 0.0
2017-Nov-17 02:58N 46°11' W 002°31'0 0.0
2017-Nov-17 02:30N 46°11' W 002°31'0 0.0
2017-Nov-17 02:00N 46°11' W 002°31'0 0.0
2017-Nov-17 01:27N 46°11' W 002°31'0 0.0
2017-Nov-17 01:00N 46°11' W 002°31'0 0.0
2017-Nov-17 00:30N 46°11' W 002°31'1 2.1
2017-Nov-17 00:00N 46°12' W 002°30'2 3.5
2017-Nov-16 23:30N 46°12' W 002°28'2 3.6
2017-Nov-16 23:00N 46°12' W 002°30'1 1.4
2017-Nov-16 22:31N 46°12' W 002°29'1 1.8
2017-Nov-16 22:01N 46°12' W 002°31'0 0.2
2017-Nov-16 21:28N 46°12' W 002°31'1 2.2
2017-Nov-16 20:54N 46°12' W 002°29'3 6.1
2017-Nov-16 20:30N 46°11' W 002°26'2 3.4
2017-Nov-16 19:54N 46°10' W 002°23'1 2.1
2017-Nov-16 19:30N 46°11' W 002°24'1 2.7
2017-Nov-16 18:57N 46°10' W 002°22'1 1.9
2017-Nov-16 18:26N 46°10' W 002°23'3 0.6
2017-Nov-16 13:06N 46°08' W 002°26'0 0.1
2017-Nov-16 13:00N 46°08' W 002°26'0 0.1
2017-Nov-16 12:29N 46°08' W 002°25'0 0.1
2017-Nov-16 12:00N 46°08' W 002°25'0 0.1
2017-Nov-16 11:26N 46°08' W 002°25'0 0.0
2017-Nov-16 11:00N 46°08' W 002°25'0 0.1
2017-Nov-16 10:30N 46°08' W 002°25'0 0.0
2017-Nov-16 10:00N 46°08' W 002°25'0 0.1
2017-Nov-16 09:30N 46°08' W 002°25'0 0.2
2017-Nov-16 09:00N 46°08' W 002°25'0 0.1
2017-Nov-16 08:24N 46°08' W 002°25'0 0.1
2017-Nov-16 08:00N 46°08' W 002°26'0 0.1
2017-Nov-16 07:30N 46°08' W 002°26'0 0.0
2017-Nov-16 07:00N 46°08' W 002°26'0 0.0
2017-Nov-16 06:27N 46°08' W 002°26'0 0.0
2017-Nov-16 06:00N 46°08' W 002°26'0 0.0
2017-Nov-16 05:30N 46°08' W 002°26'0 0.0
2017-Nov-16 05:00N 46°08' W 002°26'0 0.0
2017-Nov-16 04:29N 46°08' W 002°26'0 0.0
2017-Nov-16 03:59N 46°08' W 002°26'0 0.0
2017-Nov-16 03:29N 46°08' W 002°26'3 1.0
2017-Nov-16 00:48N 46°10' W 002°23'5 2.9
2017-Nov-15 23:13N 46°12' W 002°29'1 1.3
2017-Nov-15 22:48N 46°12' W 002°30'0 1.6
2017-Nov-15 22:30N 46°12' W 002°31'1 1.1
2017-Nov-15 22:00N 46°12' W 002°30'1 0.7
2017-Nov-15 20:46N 46°11' W 002°31'0 0.2
2017-Nov-15 20:29N 46°11' W 002°31'0 0.0
2017-Nov-15 20:00N 46°11' W 002°31'0 0.1
2017-Nov-15 19:30N 46°11' W 002°31'0 0.1
2017-Nov-15 19:00N 46°11' W 002°31'0 0.0
2017-Nov-15 18:26N 46°11' W 002°31'0 0.0
2017-Nov-15 17:57N 46°11' W 002°31'5 1.3
2017-Nov-15 14:20N 46°15' W 002°27'1 2.4
2017-Nov-15 13:57N 46°15' W 002°28'1 2.0
2017-Nov-15 13:18N 46°15' W 002°30'3 4.3
2017-Nov-15 12:36N 46°12' W 002°32'0 2.7
2017-Nov-15 12:29N 46°13' W 002°32'2 3.9
2017-Nov-15 11:56N 46°14' W 002°35'3 6.3
2017-Nov-15 11:28N 46°15' W 002°38'1 1.6
2017-Nov-15 10:42N 46°14' W 002°37'0 0.7
2017-Nov-15 10:30N 46°14' W 002°37'3 4.9
2017-Nov-15 09:50N 46°13' W 002°33'2 5.0
2017-Nov-15 09:31N 46°12' W 002°31'0 0.0
2017-Nov-15 09:00N 46°12' W 002°31'0 0.0
2017-Nov-15 08:30N 46°12' W 002°31'0 0.1
2017-Nov-15 08:00N 46°12' W 002°32'0 0.1
2017-Nov-15 07:28N 46°12' W 002°32'0 0.0
2017-Nov-15 07:00N 46°12' W 002°32'0 0.0
2017-Nov-15 06:30N 46°12' W 002°32'0 0.0
2017-Nov-15 06:00N 46°12' W 002°32'0 0.1
2017-Nov-15 05:30N 46°12' W 002°32'0 0.0
2017-Nov-15 05:00N 46°12' W 002°32'0 0.0
2017-Nov-15 04:18N 46°12' W 002°32'0 0.1
2017-Nov-15 03:54N 46°12' W 002°32'0 0.1
2017-Nov-15 03:24N 46°12' W 002°31'0 0.1
2017-Nov-15 02:57N 46°12' W 002°32'0 0.0
2017-Nov-15 02:30N 46°12' W 002°32'0 0.0
2017-Nov-15 01:59N 46°12' W 002°32'0 0.0
2017-Nov-15 01:27N 46°12' W 002°32'0 0.0
2017-Nov-15 00:57N 46°12' W 002°32'0 0.0
2017-Nov-15 00:30N 46°12' W 002°32'7 0.4
2017-Nov-14 07:51N 46°14' W 002°22'0 0.1
2017-Nov-14 05:39N 46°14' W 002°22'0 0.0
2017-Nov-14 05:30N 46°14' W 002°22'0 0.1
2017-Nov-14 05:00N 46°14' W 002°22'0 0.0
2017-Nov-14 04:10N 46°14' W 002°22'12 0.4
2017-Nov-13 00:12N 46°26' W 002°22'3 9.3
2017-Nov-12 23:54N 46°28' W 002°20'4 9.3
2017-Nov-12 23:30N 46°32' W 002°18'5 9.4
2017-Nov-12 23:00N 46°36' W 002°17'5 9.5
2017-Nov-12 22:28N 46°41' W 002°16'4 0.1
2017-Nov-11 15:39N 46°44' W 002°21'0 0.0
2017-Nov-11 15:24N 46°44' W 002°21'6 0.5
2017-Nov-11 03:42N 46°41' W 002°13'2 9.5
2017-Nov-11 03:29N 46°40' W 002°11'5 9.4
2017-Nov-11 02:57N 46°36' W 002°05'4 9.5
2017-Nov-11 02:30N 46°34' W 002°01'5 9.5
2017-Nov-11 02:00N 46°31' W 001°55'5 9.4
2017-Nov-11 01:30N 46°29' W 001°49'2 3.2
2017-Nov-11 01:00N 46°30' W 001°47'0 0.0
2017-Nov-11 00:30N 46°30' W 001°47'0 0.1
2017-Nov-11 00:00N 46°30' W 001°47'0 0.3
2017-Nov-10 23:30N 46°30' W 001°47'3 5.5
2017-Nov-10 23:00N 46°28' W 001°50'510.0
2017-Nov-10 22:30N 46°26' W 001°56'5 9.9
2017-Nov-10 22:01N 46°23' W 002°02'5 9.9
2017-Nov-10 21:30N 46°21' W 002°09'10 1.2
2017-Nov-10 13:15N 46°26' W 002°21'3 8.7
2017-Nov-10 12:56N 46°28' W 002°20'4 8.7
2017-Nov-10 12:30N 46°32' W 002°18'4 8.8
2017-Nov-10 12:00N 46°36' W 002°17'  
2017-Nov-08 06:12N 46°26' W 002°20'3 8.7
2017-Nov-08 05:53N 46°28' W 002°20'3 8.7
2017-Nov-08 05:30N 46°32' W 002°19'4 8.5
2017-Nov-08 04:58N 46°36' W 002°18'6 8.0
2017-Nov-08 04:13N 46°42' W 002°16'  
Track history (hours):
 
Tides and Currents Weather Stations Pressure Air Temp Water Temp Dewpoint Dewpoint Depression Visibility Wind Speed Wind Dir Waves Ship Positions

F/V Marial

Last reported at 2017-Nov-18 03:17 UTC. Time now 2017-Nov-19 21:56 UTC.
Position N 46°44' W 002°21'.

Length 20 m; draft 3.4 m.

Type: Fishing. MMSI: 227563000.

Date/timePositionNaut miles runAvg speedWind from/ knotsBaromVisibWave heightAir tempDewpointWater temp
2017-Nov-18 03:17N 46°44' W 002°21'0 0.0
2017-Nov-18 03:00N 46°44' W 002°21'33 2.1
2017-Nov-17 11:32N 46°12' W 002°31'0 0.0
2017-Nov-17 11:24N 46°12' W 002°31'0 0.0
2017-Nov-17 10:56N 46°12' W 002°31'0 0.1
2017-Nov-17 10:30N 46°12' W 002°31'0 0.1
2017-Nov-17 09:57N 46°12' W 002°31'0 0.1
2017-Nov-17 09:30N 46°12' W 002°31'0 0.1
2017-Nov-17 08:59N 46°12' W 002°31'0 0.1
2017-Nov-17 08:30N 46°11' W 002°31'0 0.0
2017-Nov-17 07:55N 46°11' W 002°31'0 0.0
2017-Nov-17 07:26N 46°11' W 002°31'0 0.1
2017-Nov-17 06:52N 46°11' W 002°31'0 0.1
2017-Nov-17 06:21N 46°11' W 002°31'0 0.0
2017-Nov-17 06:00N 46°11' W 002°31'0 0.0
2017-Nov-17 04:47N 46°11' W 002°31'0 0.0
2017-Nov-17 04:17N 46°11' W 002°31'0 0.0
2017-Nov-17 04:00N 46°11' W 002°31'0 0.0
2017-Nov-17 03:29N 46°11' W 002°31'0 0.0
2017-Nov-17 02:58N 46°11' W 002°31'0 0.0
2017-Nov-17 02:30N 46°11' W 002°31'0 0.0
2017-Nov-17 02:00N 46°11' W 002°31'0 0.0
2017-Nov-17 01:27N 46°11' W 002°31'0 0.0
2017-Nov-17 01:00N 46°11' W 002°31'0 0.0
2017-Nov-17 00:30N 46°11' W 002°31'1 2.1
2017-Nov-17 00:00N 46°12' W 002°30'2 3.5
2017-Nov-16 23:30N 46°12' W 002°28'2 3.6
2017-Nov-16 23:00N 46°12' W 002°30'1 1.4
2017-Nov-16 22:31N 46°12' W 002°29'1 1.8
2017-Nov-16 22:01N 46°12' W 002°31'0 0.2
2017-Nov-16 21:28N 46°12' W 002°31'1 2.2
2017-Nov-16 20:54N 46°12' W 002°29'3 6.1
2017-Nov-16 20:30N 46°11' W 002°26'2 3.4
2017-Nov-16 19:54N 46°10' W 002°23'1 2.1
2017-Nov-16 19:30N 46°11' W 002°24'1 2.7
2017-Nov-16 18:57N 46°10' W 002°22'1 1.9
2017-Nov-16 18:26N 46°10' W 002°23'3 0.6
2017-Nov-16 13:06N 46°08' W 002°26'0 0.1
2017-Nov-16 13:00N 46°08' W 002°26'0 0.1
2017-Nov-16 12:29N 46°08' W 002°25'0 0.1
2017-Nov-16 12:00N 46°08' W 002°25'0 0.1
2017-Nov-16 11:26N 46°08' W 002°25'0 0.0
2017-Nov-16 11:00N 46°08' W 002°25'0 0.1
2017-Nov-16 10:30N 46°08' W 002°25'0 0.0
2017-Nov-16 10:00N 46°08' W 002°25'0 0.1
2017-Nov-16 09:30N 46°08' W 002°25'0 0.2
2017-Nov-16 09:00N 46°08' W 002°25'0 0.1
2017-Nov-16 08:24N 46°08' W 002°25'0 0.1
2017-Nov-16 08:00N 46°08' W 002°26'0 0.1
2017-Nov-16 07:30N 46°08' W 002°26'0 0.0
2017-Nov-16 07:00N 46°08' W 002°26'0 0.0
2017-Nov-16 06:27N 46°08' W 002°26'0 0.0
2017-Nov-16 06:00N 46°08' W 002°26'0 0.0
2017-Nov-16 05:30N 46°08' W 002°26'0 0.0
2017-Nov-16 05:00N 46°08' W 002°26'0 0.0
2017-Nov-16 04:29N 46°08' W 002°26'0 0.0
2017-Nov-16 03:59N 46°08' W 002°26'0 0.0
2017-Nov-16 03:29N 46°08' W 002°26'3 1.0
2017-Nov-16 00:48N 46°10' W 002°23'5 2.9
2017-Nov-15 23:13N 46°12' W 002°29'1 1.3
2017-Nov-15 22:48N 46°12' W 002°30'0 1.6
2017-Nov-15 22:30N 46°12' W 002°31'1 1.1
2017-Nov-15 22:00N 46°12' W 002°30'1 0.7
2017-Nov-15 20:46N 46°11' W 002°31'0 0.2
2017-Nov-15 20:29N 46°11' W 002°31'0 0.0
2017-Nov-15 20:00N 46°11' W 002°31'0 0.1
2017-Nov-15 19:30N 46°11' W 002°31'0 0.1
2017-Nov-15 19:00N 46°11' W 002°31'0 0.0
2017-Nov-15 18:26N 46°11' W 002°31'0 0.0
2017-Nov-15 17:57N 46°11' W 002°31'5 1.3
2017-Nov-15 14:20N 46°15' W 002°27'1 2.4
2017-Nov-15 13:57N 46°15' W 002°28'1 2.0
2017-Nov-15 13:18N 46°15' W 002°30'3 4.3
2017-Nov-15 12:36N 46°12' W 002°32'0 2.7
2017-Nov-15 12:29N 46°13' W 002°32'2 3.9
2017-Nov-15 11:56N 46°14' W 002°35'3 6.3
2017-Nov-15 11:28N 46°15' W 002°38'1 1.6
2017-Nov-15 10:42N 46°14' W 002°37'0 0.7
2017-Nov-15 10:30N 46°14' W 002°37'3 4.9
2017-Nov-15 09:50N 46°13' W 002°33'2 5.0
2017-Nov-15 09:31N 46°12' W 002°31'0 0.0
2017-Nov-15 09:00N 46°12' W 002°31'0 0.0
2017-Nov-15 08:30N 46°12' W 002°31'0 0.1
2017-Nov-15 08:00N 46°12' W 002°32'0 0.1
2017-Nov-15 07:28N 46°12' W 002°32'0 0.0
2017-Nov-15 07:00N 46°12' W 002°32'0 0.0
2017-Nov-15 06:30N 46°12' W 002°32'0 0.0
2017-Nov-15 06:00N 46°12' W 002°32'0 0.1
2017-Nov-15 05:30N 46°12' W 002°32'0 0.0
2017-Nov-15 05:00N 46°12' W 002°32'0 0.0
2017-Nov-15 04:18N 46°12' W 002°32'0 0.1
2017-Nov-15 03:54N 46°12' W 002°32'0 0.1
2017-Nov-15 03:24N 46°12' W 002°31'0 0.1
2017-Nov-15 02:57N 46°12' W 002°32'0 0.0
2017-Nov-15 02:30N 46°12' W 002°32'0 0.0
2017-Nov-15 01:59N 46°12' W 002°32'0 0.0
2017-Nov-15 01:27N 46°12' W 002°32'0 0.0
2017-Nov-15 00:57N 46°12' W 002°32'0 0.0
2017-Nov-15 00:30N 46°12' W 002°32'7 0.4
2017-Nov-14 07:51N 46°14' W 002°22'0 0.1
2017-Nov-14 05:39N 46°14' W 002°22'0 0.0
2017-Nov-14 05:30N 46°14' W 002°22'0 0.1
2017-Nov-14 05:00N 46°14' W 002°22'0 0.0
2017-Nov-14 04:10N 46°14' W 002°22'12 0.4
2017-Nov-13 00:12N 46°26' W 002°22'3 9.3
2017-Nov-12 23:54N 46°28' W 002°20'4 9.3
2017-Nov-12 23:30N 46°32' W 002°18'5 9.4
2017-Nov-12 23:00N 46°36' W 002°17'5 9.5
2017-Nov-12 22:28N 46°41' W 002°16'4 0.1
2017-Nov-11 15:39N 46°44' W 002°21'0 0.0
2017-Nov-11 15:24N 46°44' W 002°21'6 0.5
2017-Nov-11 03:42N 46°41' W 002°13'2 9.5
2017-Nov-11 03:29N 46°40' W 002°11'5 9.4
2017-Nov-11 02:57N 46°36' W 002°05'4 9.5
2017-Nov-11 02:30N 46°34' W 002°01'5 9.5
2017-Nov-11 02:00N 46°31' W 001°55'5 9.4
2017-Nov-11 01:30N 46°29' W 001°49'2 3.2
2017-Nov-11 01:00N 46°30' W 001°47'0 0.0
2017-Nov-11 00:30N 46°30' W 001°47'0 0.1
2017-Nov-11 00:00N 46°30' W 001°47'0 0.3
2017-Nov-10 23:30N 46°30' W 001°47'3 5.5
2017-Nov-10 23:00N 46°28' W 001°50'510.0
2017-Nov-10 22:30N 46°26' W 001°56'5 9.9
2017-Nov-10 22:01N 46°23' W 002°02'5 9.9
2017-Nov-10 21:30N 46°21' W 002°09'10 1.2
2017-Nov-10 13:15N 46°26' W 002°21'3 8.7
2017-Nov-10 12:56N 46°28' W 002°20'4 8.7
2017-Nov-10 12:30N 46°32' W 002°18'4 8.8
2017-Nov-10 12:00N 46°36' W 002°17'  
2017-Nov-08 06:12N 46°26' W 002°20'3 8.7
2017-Nov-08 05:53N 46°28' W 002°20'3 8.7
2017-Nov-08 05:30N 46°32' W 002°19'4 8.5
2017-Nov-08 04:58N 46°36' W 002°18'6 8.0
2017-Nov-08 04:13N 46°42' W 002°16'  

Dump ship's entire track history